Time;durP1;ratioP1;P1;durP2;ratioP2;P2;SDS_P1;SDS_P2;PMS_P1;PMS_P2;Temp;Humidity;BMP_temperature;BMP_pressure;BME280_temperature;BME280_humidity;BME280_pressure;Samples;Min_cycle;Max_cycle;Signal;HPM_P1;HPM_P2
2023/10/26 00:00:29;;;;;;;4.17;2.63;;;16.90;99.90;;;;;;5016062;28;20244;-88
2023/10/26 00:02:55;;;;;;;2.60;2.40;;;16.90;99.90;;;;;;5033383;28;20295;-88
2023/10/26 00:05:21;;;;;;;2.80;2.60;;;16.90;99.90;;;;;;5013358;28;20577;-88
2023/10/26 00:07:47;;;;;;;3.33;2.60;;;16.90;99.90;;;;;;5017253;28;20200;-88
2023/10/26 00:10:12;;;;;;;3.20;2.50;;;16.90;99.90;;;;;;5011944;28;20423;-87
2023/10/26 00:12:38;;;;;;;2.73;2.53;;;16.90;99.90;;;;;;5002843;28;20184;-88
2023/10/26 00:15:04;;;;;;;2.77;2.37;;;16.90;99.90;;;;;;5018680;28;20176;-88
2023/10/26 00:17:30;;;;;;;2.90;2.60;;;16.90;99.90;;;;;;5021095;28;20245;-87
2023/10/26 00:19:56;;;;;;;2.60;2.23;;;16.90;99.90;;;;;;5016499;28;20475;-87
2023/10/26 00:22:22;;;;;;;2.73;2.50;;;17.00;99.90;;;;;;5001009;28;20496;-87
2023/10/26 00:24:49;;;;;;;2.97;2.67;;;16.90;99.90;;;;;;5012581;28;20172;-87
2023/10/26 00:27:16;;;;;;;2.83;2.63;;;16.90;99.90;;;;;;5000369;28;20181;-87
2023/10/26 00:29:42;;;;;;;3.40;2.50;;;16.90;99.90;;;;;;5011078;28;20521;-87
2023/10/26 00:32:09;;;;;;;2.63;2.43;;;16.90;99.90;;;;;;5019578;28;20182;-87
2023/10/26 00:34:35;;;;;;;2.83;2.53;;;16.90;99.90;;;;;;5010622;28;20184;-87
2023/10/26 00:37:02;;;;;;;3.17;2.70;;;16.90;99.90;;;;;;5016355;28;20174;-87
2023/10/26 00:39:28;;;;;;;2.70;2.50;;;16.90;99.90;;;;;;5007894;28;20657;-87
2023/10/26 00:41:55;;;;;;;2.97;2.40;;;16.90;99.90;;;;;;5011381;28;20186;-87
2023/10/26 00:44:22;;;;;;;2.77;2.43;;;16.90;99.90;;;;;;5010877;28;20422;-87
2023/10/26 00:46:49;;;;;;;2.77;2.53;;;16.90;99.90;;;;;;5008138;28;20270;-87
2023/10/26 00:49:16;;;;;;;2.80;2.60;;;16.90;99.90;;;;;;5014171;28;20196;-87
2023/10/26 00:51:51;;;;;;;3.00;2.70;;;16.90;99.90;;;;;;5005736;28;20394;-87
2023/10/26 00:54:22;;;;;;;2.80;2.60;;;16.90;99.90;;;;;;5014872;28;20172;-87
2023/10/26 00:56:50;;;;;;;2.83;2.63;;;16.90;99.90;;;;;;5006064;28;20536;-87
2023/10/26 00:59:17;;;;;;;6.17;2.73;;;16.90;99.90;;;;;;5013602;28;20266;-87
2023/10/26 01:01:45;;;;;;;2.90;2.70;;;16.90;99.90;;;;;;5006737;28;20172;-87
2023/10/26 01:04:14;;;;;;;2.67;2.40;;;16.90;99.90;;;;;;5015958;28;20211;-87
2023/10/26 01:06:44;;;;;;;2.80;2.60;;;16.90;99.90;;;;;;5011638;28;20323;-87
2023/10/26 01:09:10;;;;;;;2.90;2.70;;;16.90;99.90;;;;;;4998057;28;20374;-87
2023/10/26 01:11:37;;;;;;;2.63;2.43;;;16.90;99.90;;;;;;5005874;28;20281;-87
2023/10/26 01:14:06;;;;;;;2.87;2.60;;;16.90;99.90;;;;;;5038028;28;20186;-87
2023/10/26 01:16:32;;;;;;;3.17;2.90;;;16.90;99.90;;;;;;5008439;28;20174;-87
2023/10/26 01:18:59;;;;;;;3.10;2.80;;;16.90;99.90;;;;;;5020380;28;20229;-87
2023/10/26 01:21:27;;;;;;;2.87;2.57;;;16.90;99.90;;;;;;5006152;28;20180;-87
2023/10/26 01:23:53;;;;;;;2.90;2.70;;;16.90;99.90;;;;;;5017555;28;20303;-87
2023/10/26 01:26:19;;;;;;;2.93;2.73;;;16.90;99.90;;;;;;5014651;28;20277;-87
2023/10/26 01:28:44;;;;;;;3.43;2.90;;;16.90;99.90;;;;;;5002767;28;20224;-87
2023/10/26 01:31:10;;;;;;;2.77;2.57;;;16.90;99.90;;;;;;5003083;28;20193;-88
2023/10/26 01:33:36;;;;;;;2.87;2.67;;;16.90;99.90;;;;;;5012801;28;20207;-88
2023/10/26 01:36:01;;;;;;;2.73;2.50;;;16.90;99.90;;;;;;5012513;28;20502;-87
2023/10/26 01:38:27;;;;;;;2.90;2.70;;;16.90;99.90;;;;;;5010593;28;20302;-87
2023/10/26 01:40:53;;;;;;;2.77;2.57;;;16.90;99.90;;;;;;5016480;28;20192;-87
2023/10/26 01:43:19;;;;;;;2.70;2.50;;;16.90;99.90;;;;;;5011079;28;20255;-87
2023/10/26 01:45:45;;;;;;;3.23;2.87;;;16.90;99.90;;;;;;5002938;28;20169;-88
2023/10/26 01:48:10;;;;;;;3.03;2.50;;;16.90;99.90;;;;;;5009701;28;20510;-87
2023/10/26 01:50:36;;;;;;;2.60;2.40;;;16.90;99.90;;;;;;5037638;28;20546;-88
2023/10/26 01:53:02;;;;;;;3.03;2.70;;;16.90;99.90;;;;;;5007869;28;20173;-88
2023/10/26 01:55:28;;;;;;;2.77;2.57;;;16.90;99.90;;;;;;5020220;28;20188;-88
2023/10/26 01:57:54;;;;;;;2.80;2.60;;;16.90;99.90;;;;;;5007034;28;20181;-87
2023/10/26 02:00:20;;;;;;;3.00;2.70;;;16.90;99.90;;;;;;5019498;28;20168;-88
2023/10/26 02:02:47;;;;;;;2.83;2.63;;;16.90;99.90;;;;;;5008728;28;20613;-88
2023/10/26 02:05:13;;;;;;;3.70;2.60;;;16.90;99.90;;;;;;5019036;28;20306;-88
2023/10/26 02:07:39;;;;;;;2.73;2.53;;;16.90;99.90;;;;;;5011175;28;20526;-88
2023/10/26 02:10:05;;;;;;;3.27;2.70;;;16.90;99.90;;;;;;5016280;28;20206;-88
2023/10/26 02:12:30;;;;;;;2.90;2.60;;;16.90;99.90;;;;;;5015520;28;20267;-88
2023/10/26 02:14:56;;;;;;;3.03;2.77;;;16.90;99.90;;;;;;5005125;28;20179;-88
2023/10/26 02:17:22;;;;;;;2.80;2.60;;;16.90;99.90;;;;;;5002962;28;20176;-88
2023/10/26 02:19:47;;;;;;;2.90;2.70;;;16.90;99.90;;;;;;4997512;28;20618;-88
2023/10/26 02:22:14;;;;;;;2.60;2.40;;;16.90;99.90;;;;;;4998370;28;20184;-87
2023/10/26 02:24:41;;;;;;;3.00;2.80;;;16.90;99.90;;;;;;5006008;28;20169;-87
2023/10/26 02:27:08;;;;;;;2.87;2.67;;;16.90;99.90;;;;;;5016006;28;20510;-87
2023/10/26 02:29:34;;;;;;;3.20;2.90;;;16.90;99.90;;;;;;5006478;28;20191;-87
2023/10/26 02:31:59;;;;;;;2.70;2.50;;;16.90;99.90;;;;;;5016865;28;20183;-87
2023/10/26 02:34:25;;;;;;;2.80;2.60;;;16.90;99.90;;;;;;5005153;28;20188;-87
2023/10/26 02:36:51;;;;;;;2.90;2.70;;;16.90;99.90;;;;;;5019228;28;20188;-88
2023/10/26 02:39:16;;;;;;;2.67;2.47;;;16.90;99.90;;;;;;5006816;28;20235;-88
2023/10/26 02:41:42;;;;;;;2.90;2.70;;;16.90;99.90;;;;;;5019177;28;20198;-88
2023/10/26 02:44:07;;;;;;;2.97;2.77;;;16.90;99.90;;;;;;5007776;28;20323;-87
2023/10/26 02:46:33;;;;;;;3.00;2.80;;;16.90;99.90;;;;;;5017972;28;20245;-87
2023/10/26 02:48:59;;;;;;;3.20;2.90;;;16.90;99.90;;;;;;5032499;28;20257;-87
2023/10/26 02:51:25;;;;;;;3.00;2.80;;;16.80;99.90;;;;;;5002669;28;20180;-88
2023/10/26 02:53:50;;;;;;;2.53;2.40;;;16.80;99.90;;;;;;5005538;28;20192;-88
2023/10/26 02:56:17;;;;;;;2.90;2.70;;;16.90;99.90;;;;;;5005753;28;20172;-88
2023/10/26 02:58:43;;;;;;;2.80;2.60;;;16.80;99.90;;;;;;5003392;28;20183;-87
2023/10/26 03:01:08;;;;;;;3.00;2.80;;;16.80;99.90;;;;;;5007360;28;20193;-88
2023/10/26 03:03:34;;;;;;;3.00;2.77;;;16.80;99.90;;;;;;4999993;28;20219;-87
2023/10/26 03:06:00;;;;;;;2.93;2.63;;;16.80;99.90;;;;;;5009372;28;20263;-87
2023/10/26 03:08:27;;;;;;;2.80;2.60;;;16.80;99.90;;;;;;5016691;28;20263;-87
2023/10/26 03:10:52;;;;;;;3.00;2.70;;;16.80;99.90;;;;;;5026253;28;20180;-87
2023/10/26 03:13:18;;;;;;;2.70;2.50;;;16.80;99.90;;;;;;4998185;28;20183;-87
2023/10/26 03:15:44;;;;;;;2.70;2.50;;;16.80;99.90;;;;;;5027154;28;20543;-87
2023/10/26 03:18:09;;;;;;;3.33;2.70;;;16.80;99.90;;;;;;5015728;28;20175;-87
2023/10/26 03:20:35;;;;;;;2.90;2.70;;;16.80;99.90;;;;;;5009756;28;20196;-87
2023/10/26 03:23:01;;;;;;;2.60;2.40;;;16.80;99.90;;;;;;4999539;28;20215;-88
2023/10/26 03:25:27;;;;;;;3.00;2.80;;;16.80;99.90;;;;;;5012191;28;20278;-88
2023/10/26 03:27:53;;;;;;;3.07;2.80;;;16.80;99.90;;;;;;5000200;28;20257;-88
2023/10/26 03:30:20;;;;;;;2.93;2.73;;;16.80;99.90;;;;;;5004995;28;20281;-88
2023/10/26 03:32:45;;;;;;;2.97;2.77;;;16.80;99.90;;;;;;5033886;28;20178;-88
2023/10/26 03:35:11;;;;;;;2.80;2.60;;;16.80;99.90;;;;;;5009484;28;20180;-88
2023/10/26 03:37:37;;;;;;;3.17;2.87;;;16.80;99.90;;;;;;5007900;28;20178;-88
2023/10/26 03:40:05;;;;;;;2.67;2.47;;;16.80;99.90;;;;;;5010855;28;20432;-88
2023/10/26 03:42:31;;;;;;;2.87;2.67;;;16.80;99.90;;;;;;5005865;28;20576;-88
2023/10/26 03:44:56;;;;;;;3.00;2.80;;;16.80;99.90;;;;;;5030425;28;20218;-88
2023/10/26 03:47:22;;;;;;;2.70;2.50;;;16.80;99.90;;;;;;5003765;28;20203;-88
2023/10/26 03:49:51;;;;;;;2.90;2.70;;;16.80;99.90;;;;;;5014068;28;20168;-88
2023/10/26 03:52:21;;;;;;;2.80;2.60;;;16.80;99.90;;;;;;5004680;28;20507;-88
2023/10/26 03:54:47;;;;;;;2.90;2.70;;;16.80;99.90;;;;;;5015191;28;20573;-88
2023/10/26 03:57:14;;;;;;;3.03;2.83;;;16.80;99.90;;;;;;5005293;28;20174;-87
2023/10/26 03:59:40;;;;;;;2.87;2.67;;;16.80;99.90;;;;;;5013613;28;20176;-87
2023/10/26 04:02:07;;;;;;;2.83;2.63;;;16.80;99.90;;;;;;5008434;28;20168;-88
2023/10/26 04:04:33;;;;;;;2.90;2.70;;;16.80;99.90;;;;;;4996590;28;20271;-88
2023/10/26 04:06:59;;;;;;;3.10;2.90;;;16.80;99.90;;;;;;5007390;28;20282;-88
2023/10/26 04:09:24;;;;;;;3.10;2.90;;;16.80;99.90;;;;;;4994144;28;20246;-88
2023/10/26 04:11:50;;;;;;;3.03;2.83;;;16.80;99.90;;;;;;5003638;28;20180;-88
2023/10/26 04:14:16;;;;;;;2.80;2.60;;;16.80;99.90;;;;;;4994523;28;20178;-88
2023/10/26 04:16:42;;;;;;;3.10;2.80;;;16.80;99.90;;;;;;4998938;28;20169;-88
2023/10/26 04:19:07;;;;;;;2.73;2.30;;;16.80;99.90;;;;;;4999382;28;20349;-88
2023/10/26 04:21:33;;;;;;;2.80;2.60;;;16.80;99.90;;;;;;5014194;28;20194;-88
2023/10/26 04:23:59;;;;;;;2.83;2.53;;;16.80;99.90;;;;;;5017189;28;20198;-88
2023/10/26 04:26:29;;;;;;;2.83;2.63;;;16.80;99.90;;;;;;4993760;28;20472;-88
2023/10/26 04:28:55;;;;;;;2.87;2.67;;;16.80;99.90;;;;;;5002892;28;20178;-87
2023/10/26 04:31:21;;;;;;;2.87;2.67;;;16.80;99.90;;;;;;5010910;28;20459;-88
2023/10/26 04:33:47;;;;;;;2.80;2.60;;;16.80;99.90;;;;;;5002311;28;20183;-87
2023/10/26 04:36:12;;;;;;;2.60;2.40;;;16.80;99.90;;;;;;4992842;28;20217;-87
2023/10/26 04:38:39;;;;;;;2.70;2.50;;;16.80;99.90;;;;;;5005787;28;20311;-88
2023/10/26 04:41:05;;;;;;;2.73;2.53;;;16.80;99.90;;;;;;5010341;28;20198;-88
2023/10/26 04:43:31;;;;;;;2.80;2.60;;;16.80;99.90;;;;;;5022297;28;20214;-88
2023/10/26 04:45:57;;;;;;;2.90;2.70;;;16.80;99.90;;;;;;4996542;28;20452;-87
2023/10/26 04:48:23;;;;;;;4.40;2.77;;;16.80;99.90;;;;;;5015747;28;20428;-88
2023/10/26 04:50:49;;;;;;;3.60;2.80;;;16.80;99.90;;;;;;5015026;28;20211;-88
2023/10/26 04:53:15;;;;;;;3.20;2.90;;;16.80;99.90;;;;;;5023286;28;20190;-88
2023/10/26 04:55:40;;;;;;;3.17;2.73;;;16.80;99.90;;;;;;5013720;28;20180;-88
2023/10/26 04:58:06;;;;;;;3.10;2.80;;;16.80;99.90;;;;;;5009254;28;20474;-88
2023/10/26 05:00:42;;;;;;;3.43;2.73;;;16.80;99.90;;;;;;5012985;28;20191;-89
2023/10/26 05:03:08;;;;;;;3.07;2.77;;;16.80;99.90;;;;;;5013907;28;20321;-88
2023/10/26 05:05:33;;;;;;;6.07;3.00;;;16.80;99.90;;;;;;5021600;28;20751;-89
2023/10/26 05:07:59;;;;;;;5.30;2.87;;;16.80;99.90;;;;;;5003068;28;20283;-89
2023/10/26 05:10:25;;;;;;;3.27;2.50;;;16.80;99.90;;;;;;5005606;28;20468;-88
2023/10/26 05:12:50;;;;;;;4.03;3.07;;;16.80;99.90;;;;;;5011421;28;20171;-89
2023/10/26 05:15:18;;;;;;;3.03;2.70;;;16.90;99.90;;;;;;5004670;28;20204;-88
2023/10/26 05:17:44;;;;;;;3.53;2.70;;;16.90;99.90;;;;;;4993278;28;20748;-88
2023/10/26 05:20:10;;;;;;;4.10;2.83;;;16.90;99.90;;;;;;5003702;28;20181;-88
2023/10/26 05:22:36;;;;;;;3.53;2.80;;;16.90;99.90;;;;;;5012155;28;20213;-88
2023/10/26 05:25:05;;;;;;;4.03;2.73;;;16.90;99.90;;;;;;5006107;28;20194;-88
2023/10/26 05:27:34;;;;;;;4.07;2.80;;;16.90;99.90;;;;;;4994672;28;20243;-88
2023/10/26 05:30:01;;;;;;;4.53;2.80;;;16.90;99.90;;;;;;5006421;28;20187;-88
2023/10/26 05:32:27;;;;;;;3.90;2.80;;;16.90;99.90;;;;;;4993317;28;20186;-88
2023/10/26 05:34:52;;;;;;;6.77;2.83;;;16.90;99.90;;;;;;5004370;28;20227;-89
2023/10/26 05:37:19;;;;;;;4.37;2.87;;;16.90;99.90;;;;;;4991825;28;20280;-89
2023/10/26 05:39:44;;;;;;;4.67;3.00;;;16.90;99.90;;;;;;5001258;28;20490;-89
2023/10/26 05:42:10;;;;;;;3.60;2.60;;;16.90;99.90;;;;;;4993294;28;20641;-88
2023/10/26 05:44:36;;;;;;;3.17;2.87;;;16.80;99.90;;;;;;4996978;28;20288;-89
2023/10/26 05:47:01;;;;;;;3.80;2.83;;;16.90;99.90;;;;;;5012853;28;20169;-88
2023/10/26 05:49:27;;;;;;;4.97;2.80;;;16.90;99.90;;;;;;4994280;28;20345;-88
2023/10/26 05:51:53;;;;;;;3.17;2.83;;;16.90;99.90;;;;;;5018651;28;20258;-89
2023/10/26 05:54:19;;;;;;;5.83;2.57;;;16.90;99.90;;;;;;5003637;28;20165;-89
2023/10/26 05:56:45;;;;;;;3.23;2.93;;;16.90;99.90;;;;;;4997062;28;20173;-89
2023/10/26 05:59:11;;;;;;;3.90;2.60;;;16.90;99.90;;;;;;5006576;28;20176;-89
2023/10/26 06:01:36;;;;;;;3.20;2.90;;;16.90;99.90;;;;;;4989872;28;20174;-89
2023/10/26 06:04:02;;;;;;;5.80;2.87;;;16.90;99.90;;;;;;4990793;28;20208;-89
2023/10/26 06:06:28;;;;;;;3.93;2.90;;;16.90;99.90;;;;;;4997796;28;20235;-89
2023/10/26 06:08:53;;;;;;;3.23;2.90;;;16.90;99.90;;;;;;5011856;28;20188;-89
2023/10/26 06:11:19;;;;;;;5.80;3.57;;;16.90;99.90;;;;;;4997801;28;20179;-89
2023/10/26 06:13:45;;;;;;;5.20;2.77;;;16.90;99.90;;;;;;5011167;28;20211;-89
2023/10/26 06:16:15;;;;;;;3.93;2.83;;;16.90;99.90;;;;;;4983937;28;20178;-89
2023/10/26 06:18:42;;;;;;;5.03;2.70;;;16.80;99.90;;;;;;5010957;28;20237;-89
2023/10/26 06:21:08;;;;;;;3.80;3.10;;;16.90;99.90;;;;;;5000349;28;20297;-89
2023/10/26 06:23:35;;;;;;;4.00;3.27;;;16.90;99.90;;;;;;5005590;28;20206;-89
2023/10/26 06:26:02;;;;;;;7.63;3.10;;;16.90;99.90;;;;;;5002344;28;20457;-89
2023/10/26 06:28:28;;;;;;;7.47;3.13;;;16.90;99.90;;;;;;5003323;28;20516;-89
2023/10/26 06:30:54;;;;;;;4.77;3.27;;;16.90;99.90;;;;;;5002944;28;20169;-89
2023/10/26 06:33:21;;;;;;;5.23;3.43;;;16.90;99.90;;;;;;5000836;28;20238;-89
2023/10/26 06:35:47;;;;;;;5.80;3.80;;;16.90;99.90;;;;;;5020454;28;20672;-89
2023/10/26 06:38:13;;;;;;;7.47;4.00;;;16.90;99.90;;;;;;4994427;28;20174;-89
2023/10/26 06:40:39;;;;;;;7.40;3.40;;;16.90;99.90;;;;;;5006066;28;20169;-89
2023/10/26 06:43:05;;;;;;;6.27;3.30;;;16.90;99.90;;;;;;4993900;28;20297;-89
2023/10/26 06:45:30;;;;;;;4.43;3.60;;;16.90;99.90;;;;;;5004154;28;20411;-89
2023/10/26 06:47:56;;;;;;;9.57;3.63;;;16.90;99.90;;;;;;5011542;28;20285;-89
2023/10/26 06:50:24;;;;;;;6.13;3.37;;;16.90;99.90;;;;;;5007102;28;20172;-89
2023/10/26 06:52:50;;;;;;;4.83;3.30;;;16.90;99.90;;;;;;4995772;28;20176;-89
2023/10/26 06:55:16;;;;;;;5.10;3.30;;;16.90;99.90;;;;;;5008444;28;20181;-88
2023/10/26 06:57:45;;;;;;;6.93;3.87;;;16.90;99.90;;;;;;4997506;28;20174;-88
2023/10/26 07:00:11;;;;;;;8.57;4.20;;;16.90;99.90;;;;;;4987820;28;20178;-88
2023/10/26 07:02:37;;;;;;;5.77;4.10;;;16.90;99.90;;;;;;5007921;28;20235;-88
2023/10/26 07:05:03;;;;;;;4.33;3.87;;;16.90;99.90;;;;;;5006597;28;20182;-88
2023/10/26 07:07:31;;;;;;;4.30;3.87;;;16.90;99.90;;;;;;4999664;28;20163;-89
2023/10/26 07:09:57;;;;;;;4.53;4.10;;;16.90;99.90;;;;;;5004074;28;20305;-89
2023/10/26 07:12:24;;;;;;;7.90;4.03;;;16.90;99.90;;;;;;5006957;28;20304;-89
2023/10/26 07:14:59;;;;;;;6.43;3.90;;;16.90;99.90;;;;;;4995860;28;20176;-89
2023/10/26 07:17:25;;;;;;;4.87;3.83;;;16.90;99.90;;;;;;4992445;28;20177;-89
2023/10/26 07:19:51;;;;;;;5.20;4.50;;;16.90;99.90;;;;;;5003686;28;20194;-89
2023/10/26 07:22:16;;;;;;;4.97;4.10;;;16.90;99.90;;;;;;4987906;28;20171;-89
2023/10/26 07:24:42;;;;;;;7.23;4.57;;;16.90;99.90;;;;;;4996964;28;20176;-89
2023/10/26 07:27:08;;;;;;;4.87;4.20;;;16.90;99.90;;;;;;4989658;28;20451;-88
2023/10/26 07:29:34;;;;;;;5.23;4.37;;;16.90;99.90;;;;;;4999897;28;20179;-88
2023/10/26 07:32:00;;;;;;;4.63;4.20;;;16.90;99.90;;;;;;4989605;28;20513;-89
2023/10/26 07:34:25;;;;;;;6.13;4.50;;;16.90;99.90;;;;;;4995710;28;20185;-88
2023/10/26 07:36:51;;;;;;;5.67;4.57;;;16.90;99.90;;;;;;5007581;28;20181;-88
2023/10/26 07:39:17;;;;;;;7.20;4.57;;;16.90;99.90;;;;;;4996489;28;20172;-89
2023/10/26 07:41:43;;;;;;;5.93;5.00;;;16.90;99.90;;;;;;5007876;28;20534;-88
2023/10/26 07:44:10;;;;;;;6.47;5.03;;;16.90;99.90;;;;;;4996920;28;20201;-86
2023/10/26 07:46:36;;;;;;;5.40;4.70;;;16.90;99.90;;;;;;4991278;28;20235;-86
2023/10/26 07:49:03;;;;;;;6.33;5.00;;;16.90;99.90;;;;;;4997406;28;20505;-86
2023/10/26 07:51:29;;;;;;;8.23;4.87;;;16.90;99.90;;;;;;5007435;28;20185;-86
2023/10/26 07:53:54;;;;;;;5.07;4.53;;;16.90;99.90;;;;;;4993776;28;20179;-86
2023/10/26 07:56:21;;;;;;;5.23;4.73;;;16.90;99.90;;;;;;4992844;28;20180;-86
2023/10/26 07:58:46;;;;;;;6.13;5.10;;;16.90;99.90;;;;;;4991850;28;20217;-87
2023/10/26 08:01:12;;;;;;;5.93;5.33;;;16.90;99.90;;;;;;4995320;28;20203;-87
2023/10/26 08:03:38;;;;;;;7.27;5.40;;;16.90;99.90;;;;;;5006254;28;20217;-87
2023/10/26 08:06:06;;;;;;;5.40;4.90;;;16.90;99.90;;;;;;4999691;28;20232;-87
2023/10/26 08:08:32;;;;;;;5.53;5.03;;;17.00;99.90;;;;;;5004530;28;20164;-87
2023/10/26 08:11:10;;;;;;;5.83;5.03;;;17.00;99.90;;;;;;5006089;28;20200;-87
2023/10/26 08:13:36;;;;;;;7.00;5.20;;;16.90;99.90;;;;;;5005768;28;20789;-87
2023/10/26 08:16:03;;;;;;;6.47;5.50;;;17.00;99.90;;;;;;4996427;28;20266;-87
2023/10/26 08:18:29;;;;;;;6.03;5.47;;;17.00;99.90;;;;;;5005290;28;20214;-87
2023/10/26 08:20:54;;;;;;;6.13;5.53;;;17.00;99.90;;;;;;4997351;28;20206;-87
2023/10/26 08:23:20;;;;;;;6.13;5.37;;;17.00;99.90;;;;;;5007499;28;20470;-87
2023/10/26 08:25:47;;;;;;;6.20;5.33;;;17.00;99.90;;;;;;4996950;28;20341;-87
2023/10/26 08:28:16;;;;;;;6.37;5.77;;;17.00;99.90;;;;;;5008455;28;20234;-88
2023/10/26 08:30:42;;;;;;;6.80;5.87;;;17.00;99.90;;;;;;4995682;28;20532;-88
2023/10/26 08:33:08;;;;;;;6.53;5.57;;;17.00;99.90;;;;;;5007227;28;20199;-87
2023/10/26 08:35:34;;;;;;;7.33;6.03;;;17.00;99.90;;;;;;5001459;28;20186;-87
2023/10/26 08:38:00;;;;;;;6.73;6.10;;;17.00;99.90;;;;;;5006715;28;20360;-87
2023/10/26 08:40:26;;;;;;;7.10;6.40;;;17.10;99.90;;;;;;5003137;28;20600;-87
2023/10/26 08:42:51;;;;;;;7.13;6.53;;;17.10;99.90;;;;;;5002050;28;20205;-88
2023/10/26 08:45:22;;;;;;;7.20;6.50;;;17.10;99.90;;;;;;5006213;28;20336;-87
2023/10/26 08:47:49;;;;;;;6.70;6.10;;;17.10;99.90;;;;;;4997742;28;20511;-87
2023/10/26 08:50:16;;;;;;;6.93;6.30;;;17.10;99.90;;;;;;4994950;28;20413;-87
2023/10/26 08:52:41;;;;;;;7.47;6.77;;;17.10;99.90;;;;;;5002047;28;20596;-87
2023/10/26 08:55:08;;;;;;;7.10;6.40;;;17.10;99.90;;;;;;5011406;28;20179;-88
2023/10/26 08:57:45;;;;;;;6.77;6.17;;;17.10;99.90;;;;;;5019364;28;20238;-88
2023/10/26 09:00:11;;;;;;;7.50;6.80;;;17.10;99.90;;;;;;5008683;28;20186;-88
2023/10/26 09:02:38;;;;;;;7.87;6.93;;;17.10;99.90;;;;;;5000167;28;20613;-88
2023/10/26 09:05:04;;;;;;;7.10;6.40;;;17.10;99.90;;;;;;4990202;28;20657;-88
2023/10/26 09:07:30;;;;;;;8.37;7.53;;;17.10;99.90;;;;;;5010076;28;20176;-87
2023/10/26 09:09:56;;;;;;;7.80;6.60;;;17.10;99.90;;;;;;4990408;28;20614;-87
2023/10/26 09:12:22;;;;;;;7.67;6.93;;;17.10;99.90;;;;;;5000616;28;20219;-88
2023/10/26 09:14:59;;;;;;;7.37;6.60;;;17.10;99.90;;;;;;4987817;28;20177;-88
2023/10/26 09:17:28;;;;;;;8.50;6.90;;;17.10;99.90;;;;;;4992766;28;20207;-87
2023/10/26 09:19:55;;;;;;;7.70;6.90;;;17.10;99.90;;;;;;5023723;28;20379;-88
2023/10/26 09:22:40;;;;;;;7.13;6.43;;;17.10;99.90;;;;;;4995545;28;20446;-87
2023/10/26 09:25:10;;;;;;;7.23;6.57;;;17.10;99.90;;;;;;4988406;28;20185;-88
2023/10/26 09:27:37;;;;;;;7.53;6.83;;;17.10;99.90;;;;;;4990244;28;20440;-87
2023/10/26 09:30:05;;;;;;;8.73;6.83;;;17.10;99.90;;;;;;5007520;28;20177;-88
2023/10/26 09:32:35;;;;;;;7.13;6.43;;;17.10;99.90;;;;;;5019774;28;20183;-88
2023/10/26 09:35:01;;;;;;;7.73;7.03;;;17.10;99.90;;;;;;4929041;28;1838095;-89
2023/10/26 09:37:27;;;;;;;7.87;7.07;;;17.10;99.90;;;;;;4991047;28;20185;-88
2023/10/26 09:39:53;;;;;;;7.57;6.87;;;17.10;99.90;;;;;;5004651;28;20176;-89
2023/10/26 09:42:19;;;;;;;7.63;6.83;;;17.10;99.90;;;;;;5005337;28;20466;-88
2023/10/26 09:44:46;;;;;;;7.13;6.47;;;17.10;99.90;;;;;;5002188;28;20180;-88
2023/10/26 09:47:13;;;;;;;7.87;6.60;;;17.10;99.90;;;;;;5007744;28;20187;-88
2023/10/26 09:49:38;;;;;;;8.13;7.30;;;17.10;99.90;;;;;;5001265;28;20487;-89
2023/10/26 09:52:05;;;;;;;7.37;6.67;;;17.10;99.90;;;;;;5007437;28;20166;-89
2023/10/26 09:54:40;;;;;;;8.43;6.90;;;17.20;99.90;;;;;;5000525;28;20177;-89
2023/10/26 09:57:26;;;;;;;7.77;7.00;;;17.20;99.90;;;;;;5007608;28;20192;-86
2023/10/26 09:59:53;;;;;;;7.47;6.63;;;17.20;99.90;;;;;;5009516;28;20539;-86
2023/10/26 10:02:20;;;;;;;7.70;6.50;;;17.20;99.90;;;;;;5026888;28;20286;-86
2023/10/26 10:04:47;;;;;;;7.50;6.80;;;17.20;99.90;;;;;;4998508;28;20176;-86
2023/10/26 10:07:17;;;;;;;6.73;6.10;;;17.20;99.90;;;;;;5009412;28;20371;-86
2023/10/26 10:10:05;;;;;;;7.47;6.70;;;17.20;99.90;;;;;;5006345;28;20313;-86
2023/10/26 10:12:32;;;;;;;8.50;6.47;;;17.30;99.90;;;;;;5009438;28;20173;-86
2023/10/26 10:15:09;;;;;;;15.10;7.50;;;17.30;99.90;;;;;;5016956;28;20179;-86
2023/10/26 10:17:44;;;;;;;9.20;7.80;;;17.30;99.90;;;;;;5026878;28;20631;-86
2023/10/26 10:20:19;;;;;;;9.83;7.63;;;17.60;99.90;;;;;;5021085;28;20233;-86
2023/10/26 10:22:50;;;;;;;8.43;7.50;;;17.60;99.90;;;;;;4991551;28;20594;-87
2023/10/26 10:25:19;;;;;;;9.17;7.63;;;17.70;99.90;;;;;;5011636;28;20204;-87
2023/10/26 10:27:48;;;;;;;9.83;7.63;;;17.70;99.90;;;;;;5009290;28;20173;-87
2023/10/26 10:30:16;;;;;;;10.50;7.33;;;17.70;99.90;;;;;;5022676;28;20169;-88
2023/10/26 10:32:46;;;;;;;9.77;6.93;;;17.70;99.90;;;;;;4988369;28;20160;-88
2023/10/26 10:35:21;;;;;;;12.30;7.67;;;17.70;99.90;;;;;;5003857;28;20185;-86
2023/10/26 10:38:13;;;;;;;8.00;7.20;;;17.70;99.90;;;;;;4995039;28;20165;-87
2023/10/26 10:41:02;;;;;;;8.77;7.30;;;17.80;99.90;;;;;;4995095;28;20185;-88
2023/10/26 10:43:31;;;;;;;8.50;7.60;;;17.80;99.90;;;;;;4997163;28;20454;-88
2023/10/26 10:46:11;;;;;;;10.90;7.40;;;17.70;99.90;;;;;;5003589;28;20516;-88
2023/10/26 10:48:54;;;;;;;10.53;7.33;;;17.80;99.90;;;;;;5003631;28;20386;-86
2023/10/26 10:51:20;;;;;;;8.50;7.37;;;17.80;99.90;;;;;;5016478;28;20197;-86
2023/10/26 10:53:50;;;;;;;10.27;7.27;;;17.80;99.90;;;;;;4986906;28;20275;-87
2023/10/26 10:56:16;;;;;;;10.30;7.43;;;17.80;99.90;;;;;;5003115;28;20177;-87
2023/10/26 10:58:42;;;;;;;8.43;7.37;;;17.80;99.90;;;;;;5022761;28;20180;-87
2023/10/26 11:01:07;;;;;;;11.17;7.40;;;17.80;99.90;;;;;;4999470;28;20178;-88
2023/10/26 11:03:34;;;;;;;8.27;7.37;;;17.80;99.90;;;;;;4988799;28;20787;-88
2023/10/26 11:06:00;;;;;;;9.93;7.10;;;17.80;99.90;;;;;;4991885;28;20181;-88
2023/10/26 11:08:25;;;;;;;9.60;7.63;;;17.90;99.90;;;;;;5008304;28;20177;-88
2023/10/26 11:10:51;;;;;;;8.13;7.33;;;17.90;99.90;;;;;;4998590;28;20197;-88
2023/10/26 11:13:22;;;;;;;8.23;7.07;;;17.90;99.90;;;;;;5006770;28;20478;-88
2023/10/26 11:15:48;;;;;;;8.07;7.13;;;17.90;99.90;;;;;;4994193;28;20488;-88
2023/10/26 11:18:14;;;;;;;8.23;7.10;;;17.90;99.90;;;;;;4988356;28;20446;-88
2023/10/26 11:20:45;;;;;;;9.33;7.67;;;17.90;99.90;;;;;;4993019;28;20204;-88
2023/10/26 11:23:12;;;;;;;9.10;8.10;;;18.00;99.90;;;;;;4993058;28;20198;-88
2023/10/26 11:25:38;;;;;;;8.93;7.27;;;18.00;99.90;;;;;;4993789;28;20231;-88
2023/10/26 11:28:05;;;;;;;12.50;8.10;;;17.90;99.90;;;;;;4996083;28;20430;-88
2023/10/26 11:30:48;;;;;;;9.50;7.70;;;18.00;99.90;;;;;;4992257;28;20207;-86
2023/10/26 11:33:37;;;;;;;8.63;7.60;;;17.90;99.90;;;;;;5000474;28;20234;-86
2023/10/26 11:36:08;;;;;;;9.63;7.63;;;18.00;99.90;;;;;;5019840;28;20571;-86
2023/10/26 11:38:34;;;;;;;7.77;6.93;;;18.00;99.90;;;;;;4993989;28;20460;-87
2023/10/26 11:41:00;;;;;;;8.23;7.00;;;18.00;99.90;;;;;;4990278;28;20172;-87
2023/10/26 11:43:33;;;;;;;7.10;6.40;;;18.00;99.90;;;;;;4997541;28;20216;-88
2023/10/26 11:45:59;;;;;;;7.37;6.27;;;18.00;99.90;;;;;;5000501;28;20435;-87
2023/10/26 11:48:32;;;;;;;7.43;6.63;;;18.00;99.90;;;;;;4996373;28;20180;-88
2023/10/26 11:50:58;;;;;;;7.03;6.07;;;18.00;99.90;;;;;;5005214;28;20594;-88
2023/10/26 11:53:26;;;;;;;7.00;5.97;;;17.90;99.90;;;;;;4999770;28;20584;-88
2023/10/26 11:55:52;;;;;;;6.17;5.57;;;18.00;99.90;;;;;;5011429;28;20169;-88
2023/10/26 11:58:18;;;;;;;5.97;5.37;;;18.00;99.90;;;;;;5021684;28;20177;-88
2023/10/26 12:00:44;;;;;;;6.20;4.80;;;18.00;99.90;;;;;;4993412;28;20551;-87
2023/10/26 12:03:10;;;;;;;6.20;5.27;;;18.00;99.90;;;;;;5002217;28;20270;-87
2023/10/26 12:05:36;;;;;;;5.70;4.90;;;18.00;99.90;;;;;;4992607;28;20377;-87
2023/10/26 12:08:02;;;;;;;4.83;4.40;;;18.00;99.90;;;;;;5003706;28;20172;-87
2023/10/26 12:10:27;;;;;;;5.27;4.77;;;18.00;99.90;;;;;;4988551;28;20173;-87
2023/10/26 12:12:54;;;;;;;5.10;4.27;;;18.00;99.90;;;;;;4996977;28;20347;-87
2023/10/26 12:15:20;;;;;;;4.37;3.97;;;18.00;99.90;;;;;;4988270;28;20575;-87
2023/10/26 12:17:50;;;;;;;5.50;4.17;;;18.00;99.90;;;;;;4994006;28;20217;-87
2023/10/26 12:20:16;;;;;;;5.20;4.10;;;18.00;99.90;;;;;;5006228;28;20453;-87
2023/10/26 12:22:42;;;;;;;4.37;3.97;;;18.00;99.90;;;;;;5001606;28;20177;-88
2023/10/26 12:25:10;;;;;;;3.70;3.40;;;18.00;99.90;;;;;;5001626;28;20466;-87
2023/10/26 12:27:36;;;;;;;4.00;3.50;;;18.00;99.90;;;;;;5004146;28;20177;-87
2023/10/26 12:30:03;;;;;;;5.20;3.67;;;18.00;99.90;;;;;;5000459;28;20173;-88
2023/10/26 12:32:30;;;;;;;3.70;3.40;;;18.00;99.90;;;;;;5005333;28;20201;-87
2023/10/26 12:34:56;;;;;;;3.77;3.40;;;18.00;99.90;;;;;;5000508;28;20197;-87
2023/10/26 12:37:21;;;;;;;3.63;3.00;;;18.00;99.90;;;;;;4992592;28;20178;-87
2023/10/26 12:39:47;;;;;;;3.77;3.30;;;18.00;99.90;;;;;;4998882;28;20173;-87
2023/10/26 12:42:13;;;;;;;3.20;2.90;;;18.00;99.90;;;;;;5011168;28;20426;-87
2023/10/26 12:44:40;;;;;;;3.97;3.20;;;18.00;99.90;;;;;;5001728;28;20237;-87